createdAt,value
2023-01-19T00:01:32.591Z,21.10
2023-01-19T00:04:08.238Z,21.00
2023-01-19T00:06:43.659Z,21.00
2023-01-19T00:11:55.508Z,20.90
2023-01-19T00:35:17.279Z,20.80
2023-01-19T00:37:52.953Z,20.80
2023-01-19T00:40:28.692Z,20.70
2023-01-19T00:43:04.695Z,20.70
2023-01-19T00:45:40.562Z,20.60
2023-01-19T00:48:18.314Z,20.60
2023-01-19T00:50:54.922Z,20.60
2023-01-19T00:53:34.121Z,20.60
2023-01-19T00:56:09.868Z,20.70
2023-01-19T00:58:45.104Z,20.70
2023-01-19T01:01:20.909Z,20.70
2023-01-19T01:04:17.803Z,20.70
2023-01-19T01:06:53.760Z,20.80
2023-01-19T01:09:29.447Z,20.80
2023-01-19T01:12:06.199Z,20.90
2023-01-19T01:14:41.785Z,20.90
2023-01-19T01:17:17.259Z,20.90
2023-01-19T01:19:54.753Z,20.90
2023-01-19T01:22:31.781Z,20.90
2023-01-19T01:25:07.704Z,20.90
2023-01-19T01:27:43.811Z,20.90
2023-01-19T02:31:41.851Z,20.60
2023-01-19T02:34:19.341Z,20.60
2023-01-19T02:36:58.168Z,20.60
2023-01-19T02:39:41.330Z,20.50
2023-01-19T02:42:21.631Z,20.60
2023-01-19T02:45:00.188Z,20.50
2023-01-19T02:47:43.749Z,20.60
2023-01-19T02:50:47.860Z,20.50
2023-01-19T02:53:54.292Z,20.50
2023-01-19T02:56:57.436Z,20.60
2023-01-19T03:05:15.560Z,20.70
2023-01-19T03:07:59.614Z,20.70
2023-01-19T03:11:29.483Z,20.70
2023-01-19T03:14:18.679Z,20.70
2023-01-19T06:31:55.821Z,20.70
2023-01-19T06:34:32.360Z,20.80
2023-01-19T06:37:07.832Z,20.70
2023-01-19T06:50:24.690Z,20.70
2023-01-19T06:53:02.843Z,20.70
2023-01-19T06:55:40.833Z,20.70
2023-01-19T06:58:16.796Z,20.70
2023-01-19T07:00:54.880Z,20.70
2023-01-19T08:50:45.051Z,20.80
2023-01-19T08:53:22.693Z,21.00
2023-01-19T08:56:04.173Z,20.90
2023-01-19T08:58:39.743Z,20.90
2023-01-19T09:01:27.434Z,20.90
2023-01-19T09:04:03.988Z,21.00
2023-01-19T09:06:41.924Z,21.00
2023-01-19T09:09:17.315Z,21.10
2023-01-19T09:11:57.326Z,21.10
2023-01-19T09:14:45.041Z,21.20
2023-01-19T09:17:30.614Z,21.10
2023-01-19T09:20:06.371Z,21.10
2023-01-19T09:22:44.150Z,21.10
2023-01-19T09:25:20.149Z,21.20
2023-01-19T09:27:55.461Z,21.30
2023-01-19T09:30:31.806Z,21.30
2023-01-19T09:33:14.901Z,21.30
2023-01-19T09:35:53.645Z,21.30
2023-01-19T09:38:36.224Z,21.30
2023-01-19T09:41:24.236Z,21.30
2023-01-19T09:44:02.690Z,21.30
2023-01-19T09:46:43.150Z,21.20
2023-01-19T09:49:23.178Z,21.20
2023-01-19T09:51:59.474Z,21.20
2023-01-19T09:54:42.671Z,21.20
2023-01-19T09:57:29.182Z,21.20
2023-01-19T10:00:05.550Z,21.20
2023-01-19T10:02:53.648Z,21.20
2023-01-19T10:05:35.884Z,21.20
2023-01-19T10:08:24.557Z,21.20
2023-01-19T10:11:01.852Z,21.20
2023-01-19T10:13:48.665Z,21.30
2023-01-19T10:16:36.332Z,21.30
2023-01-19T10:22:18.336Z,21.30
2023-01-19T10:25:03.056Z,21.10
2023-01-19T10:33:02.859Z,21.20
2023-01-19T10:35:41.735Z,21.20
2023-01-19T10:38:28.546Z,21.30
2023-01-19T10:41:20.406Z,21.30
2023-01-19T10:44:05.103Z,21.30
2023-01-19T10:46:56.958Z,21.40
2023-01-19T10:49:35.106Z,21.40
2023-01-19T10:52:12.643Z,21.40
2023-01-19T10:54:54.849Z,21.40
2023-01-19T10:57:36.266Z,21.40
2023-01-19T11:00:39.560Z,21.40
2023-01-19T11:03:29.187Z,21.30
2023-01-19T11:06:26.843Z,21.40
2023-01-19T11:09:21.257Z,21.30
2023-01-19T11:11:59.924Z,21.40
2023-01-19T11:14:36.263Z,21.40
2023-01-19T11:17:21.150Z,21.40
2023-01-19T11:20:03.085Z,21.40
2023-01-19T11:22:40.937Z,21.40
2023-01-19T11:25:29.907Z,21.40
2023-01-19T11:28:07.971Z,21.40
2023-01-19T11:30:43.326Z,21.40
2023-01-19T11:33:30.689Z,21.40
2023-01-19T11:36:23.048Z,21.40
2023-01-19T11:39:04.257Z,21.40
2023-01-19T11:41:42.088Z,21.50
2023-01-19T11:44:25.304Z,21.50
2023-01-19T11:47:03.433Z,21.50
2023-01-19T11:49:48.190Z,21.50
2023-01-19T11:52:31.591Z,21.50
2023-01-19T11:55:19.199Z,21.50
2023-01-19T11:57:57.802Z,21.50
2023-01-19T12:00:42.777Z,21.50
2023-01-19T12:03:23.822Z,21.40
2023-01-19T12:06:03.877Z,21.50
2023-01-19T12:08:44.079Z,21.50
2023-01-19T12:11:24.478Z,21.40
2023-01-19T12:14:00.640Z,21.50
2023-01-19T12:16:42.682Z,21.50
2023-01-19T12:19:23.035Z,21.50
2023-01-19T12:22:00.107Z,21.50
2023-01-19T12:24:42.243Z,21.40
2023-01-19T12:27:27.321Z,21.50
2023-01-19T12:30:03.285Z,21.50
2023-01-19T12:32:42.190Z,21.50
2023-01-19T12:35:48.923Z,21.50
2023-01-19T12:38:50.902Z,21.50
2023-01-19T12:41:28.149Z,21.50
2023-01-19T12:44:37.584Z,21.50
2023-01-19T12:47:26.099Z,21.50
2023-01-19T12:50:09.541Z,21.60
2023-01-19T12:52:51.322Z,21.60
2023-01-19T12:55:32.854Z,21.50
2023-01-19T12:58:09.709Z,21.50
2023-01-19T13:00:47.139Z,21.50
2023-01-19T13:03:51.424Z,21.50
2023-01-19T13:07:07.445Z,21.40
2023-01-19T13:09:44.924Z,21.50
2023-01-19T13:12:28.589Z,21.50
2023-01-19T13:15:39.500Z,21.50
2023-01-19T13:18:21.921Z,21.50
2023-01-19T13:21:04.428Z,21.60
2023-01-19T13:24:00.541Z,21.60
2023-01-19T13:26:39.016Z,21.50
2023-01-19T13:29:24.028Z,21.50
2023-01-19T13:32:04.464Z,21.60
2023-01-19T13:34:47.430Z,21.50
2023-01-19T13:37:24.926Z,21.60
2023-01-19T13:40:03.180Z,21.60
2023-01-19T13:42:41.016Z,21.60
2023-01-19T13:45:31.350Z,21.60
2023-01-19T13:48:09.445Z,21.60
2023-01-19T13:50:44.982Z,21.50
2023-01-19T13:53:25.986Z,21.50
2023-01-19T13:56:23.793Z,21.60
2023-01-19T13:59:15.268Z,21.60
2023-01-19T14:01:52.586Z,21.60
2023-01-19T14:04:35.491Z,21.60
2023-01-19T14:07:27.769Z,21.60
2023-01-19T14:10:11.139Z,21.60
2023-01-19T14:12:59.090Z,21.60
2023-01-19T14:15:36.834Z,21.60
2023-01-19T14:18:25.696Z,21.60
2023-01-19T14:21:04.515Z,21.50
2023-01-19T14:23:46.632Z,21.50
2023-01-19T14:26:48.068Z,21.50
2023-01-19T14:29:31.765Z,21.60
2023-01-19T14:32:17.487Z,21.60
2023-01-19T14:34:55.135Z,21.50
2023-01-19T14:37:33.390Z,21.60
2023-01-19T14:40:21.429Z,21.60
2023-01-19T14:43:01.696Z,21.60
2023-01-19T14:45:42.137Z,21.60
2023-01-19T14:48:22.212Z,21.50
2023-01-19T14:51:07.695Z,21.50
2023-01-19T14:53:43.660Z,21.50
2023-01-19T14:56:27.842Z,21.50
2023-01-19T14:59:05.249Z,21.40
2023-01-19T15:01:42.979Z,21.50
2023-01-19T15:04:18.279Z,21.40
2023-01-19T15:06:53.391Z,21.40
2023-01-19T15:09:30.142Z,21.40
2023-01-19T15:12:06.135Z,21.50
2023-01-19T15:14:41.279Z,21.50
2023-01-19T15:17:26.994Z,21.50
2023-01-19T15:20:03.002Z,21.40
2023-01-19T15:22:38.944Z,21.40
2023-01-19T15:25:18.424Z,21.30
2023-01-19T15:27:54.562Z,21.30
2023-01-19T15:30:32.595Z,21.30
2023-01-19T15:33:10.150Z,21.30
2023-01-19T15:35:45.551Z,21.30
2023-01-19T15:38:20.991Z,21.20
2023-01-19T15:40:57.334Z,21.20
2023-01-19T17:04:00.857Z,20.80
2023-01-19T18:37:35.271Z,19.90
2023-01-19T18:40:14.309Z,19.90
2023-01-19T18:42:49.838Z,20.00
2023-01-19T18:45:25.081Z,19.90
2023-01-19T18:48:01.596Z,19.90
2023-01-19T18:50:37.380Z,19.90
2023-01-19T18:53:12.568Z,19.80
2023-01-19T18:55:55.356Z,19.80
2023-01-19T18:58:31.769Z,19.80
2023-01-19T19:01:07.840Z,19.70
2023-01-19T19:03:43.928Z,19.80
2023-01-19T19:06:22.176Z,19.80
2023-01-19T19:08:59.787Z,19.80
2023-01-19T19:11:37.443Z,19.80
2023-01-19T19:14:15.405Z,19.80
2023-01-19T19:16:50.525Z,19.80
